Weather History for Socorro, NM

Change the Weather History Date:

Sunday, March 17, 2013

  Actual Average Record
Temperature  
Mean Temperature 58 °F -  
Max Temperature 75 °F 69 °F 82 °F (2011)
Min Temperature 40 °F 29 °F 32 °F (2014)
Degree Days  
Heating Degree Days 8    
Growing Degree Days 8 (Base 50)    
Moisture  
Dew Point 20 °F    
Average Humidity 29    
Maximum Humidity 68    
Minimum Humidity 6    
Precipitation  
Precipitation 0.00 in - - ()
Sea Level Pressure  
Sea Level Pressure 29.85 in    
Wind  
Wind Speed 12 mph (West)    
Max Wind Speed 31 mph    
Max Gust Speed 55 mph    
Visibility 10 miles    
Events      
Averages and records for this station are not official NWS values.
T = Trace of Precipitation, MM = Missing Value Source: NWS Daily Summary

Daily Weather History Graph

Daily Weather History Graph

Search for Another Location

Airport:

Trip Planner

Search our weather history database for the weather conditions in past years. The results will help you decide how hot, cold, wet, or windy it might be!

Date:

Astronomy

Mar. 17, 2013 Rise Set
Actual Time 7:14 AM MDT 7:17 PM MDT
Civil Twilight 6:50 AM MDT 7:42 PM MDT
Nautical Twilight 6:21 AM MDT 8:11 PM MDT
Astronomical Twilight 5:51 AM MDT 8:40 PM MDT
Moon 10:44 AM MDT (3/17) 12:13 AM MDT (3/17)
Length of Visible Light 12h 52m
Length of Day
12h 02m
Waxing Crescent, 32% of the Moon is Illuminated
Mar 17
Waxing Crescent
Mar 19
First Quarter
Mar 27
Full
Apr 2
Last Quarter
Apr 10
New

Hourly Weather History & Observations

Time (MDT) Temp. Windchill Dew Point Humidity Pressure Visibility Wind Dir Wind Speed Gust Speed Precip Events Conditions
12:15 AM 62.2 °F - 15.4 °F 16% 29.89 in 10.0 mi NW 15.0 mph 20.7 mph N/A   Clear
12:35 AM 60.4 °F - 25.5 °F 26% 29.92 in 10.0 mi NNE 13.8 mph 19.6 mph N/A   Clear
12:55 AM 57.4 °F - 29.3 °F 34% 29.92 in 10.0 mi NNE 13.8 mph 19.6 mph N/A   Clear
1:15 AM 55.4 °F - 31.1 °F 40% 29.93 in 10.0 mi NNE 10.4 mph - N/A   Clear
1:35 AM 54.1 °F - 32.7 °F 44% 29.92 in 10.0 mi NNE 13.8 mph 18.4 mph N/A   Clear
1:55 AM 53.1 °F - 33.3 °F 47% 29.92 in 10.0 mi NE 10.4 mph - N/A   Clear
2:15 AM 52.3 °F - 33.1 °F 48% 29.91 in 10.0 mi NNE 8.1 mph - N/A   Clear
2:35 AM 50.9 °F - 32.9 °F 50% 29.91 in 10.0 mi NNW 4.6 mph - N/A   Clear
2:55 AM 49.5 °F - 32.5 °F 52% 29.91 in 10.0 mi North 3.5 mph - N/A   Clear
3:15 AM 50.0 °F - 33.1 °F 52% 29.90 in 10.0 mi Calm Calm - N/A   Scattered Clouds
3:35 AM 49.1 °F - 32.7 °F 53% 29.90 in 10.0 mi NE 4.6 mph - N/A   Clear
3:55 AM 45.9 °F 42.9 °F 31.3 °F 57% 29.90 in 10.0 mi South 5.8 mph - N/A   Clear
4:15 AM 46.9 °F - 31.8 °F 56% 29.89 in 10.0 mi SW 4.6 mph - N/A   Clear
4:35 AM 45.1 °F 42.0 °F 32.0 °F 60% 29.89 in 10.0 mi WSW 5.8 mph - N/A   Clear
4:55 AM 45.0 °F 42.6 °F 32.0 °F 60% 29.89 in 10.0 mi WNW 4.6 mph - N/A   Clear
5:15 AM 45.5 °F 44.2 °F 32.0 °F 59% 29.89 in 10.0 mi North 3.5 mph - N/A   Clear
5:35 AM 43.9 °F 42.3 °F 31.6 °F 62% 29.89 in 10.0 mi NW 3.5 mph - N/A   Clear
5:55 AM 44.1 °F - 31.1 °F 60% 29.90 in 10.0 mi Calm Calm - N/A   Clear
6:15 AM 40.6 °F 36.7 °F 30.7 °F 68% 29.90 in 10.0 mi South 5.8 mph - N/A   Clear
6:35 AM 41.0 °F 38.0 °F 30.6 °F 66% 29.91 in 10.0 mi WSW 4.6 mph - N/A   Clear
6:55 AM 40.1 °F 36.9 °F 29.1 °F 65% 29.92 in 10.0 mi SSW 4.6 mph - N/A   Clear
7:15 AM 40.6 °F 36.7 °F 30.2 °F 66% 29.92 in 10.0 mi SW 5.8 mph - N/A   Clear
7:35 AM 41.9 °F 38.2 °F 30.7 °F 65% 29.92 in 10.0 mi WSW 5.8 mph - N/A   Clear
7:55 AM 43.3 °F 39.9 °F 30.9 °F 62% 29.92 in 10.0 mi SSE 5.8 mph - N/A   Clear
8:15 AM 45.0 °F 43.5 °F 31.6 °F 60% 29.92 in 10.0 mi SSE 3.5 mph - N/A   Clear
8:35 AM 44.8 °F 42.4 °F 31.5 °F 60% 29.92 in 10.0 mi SE 4.6 mph - N/A   Clear
8:55 AM 46.0 °F 43.1 °F 32.0 °F 58% 29.93 in 10.0 mi SSE 5.8 mph - N/A   Clear
9:15 AM 50.7 °F - 32.2 °F 49% 29.92 in 10.0 mi SSE 5.8 mph - N/A   Clear
9:35 AM 53.6 °F - 32.5 °F 45% 29.92 in 10.0 mi South 5.8 mph - N/A   Clear
9:55 AM 55.2 °F - 33.1 °F 43% 29.91 in 10.0 mi SSE 9.2 mph - N/A   Clear
10:15 AM 57.7 °F - 32.9 °F 39% 29.91 in 10.0 mi SSE 11.5 mph - N/A   Clear
10:35 AM 60.4 °F - 32.2 °F 35% 29.91 in 10.0 mi SSE 10.4 mph - N/A   Clear
10:55 AM 61.9 °F - 32.0 °F 33% 29.90 in 10.0 mi SE 11.5 mph - N/A   Clear
11:15 AM 64.6 °F - 31.6 °F 29% 29.88 in 10.0 mi SE 13.8 mph - N/A   Clear
11:35 AM 68.0 °F - 29.1 °F 23% 29.86 in 10.0 mi ESE 10.4 mph - N/A   Scattered Clouds
11:55 AM 71.6 °F - 19.6 °F 14% 29.84 in 10.0 mi South 9.2 mph 23.0 mph N/A   Scattered Clouds
12:15 PM 70.0 °F - 20.7 °F 15% 29.83 in 10.0 mi WNW 8.1 mph 17.3 mph N/A   Scattered Clouds
12:35 PM 68.9 °F - 20.3 °F 16% 29.84 in 10.0 mi WSW 18.4 mph 43.7 mph N/A   Mostly Cloudy
12:55 PM 68.2 °F - 13.5 °F 12% 29.83 in 10.0 mi West 21.9 mph 31.1 mph N/A   Overcast
1:15 PM 73.4 °F - 10.6 °F 9% 29.81 in 10.0 mi West 19.6 mph 27.6 mph N/A   Scattered Clouds
1:35 PM 73.0 °F - 11.5 °F 9% 29.80 in 10.0 mi WNW 23.0 mph 29.9 mph N/A   Clear
1:55 PM 74.5 °F - 13.8 °F 10% 29.79 in 10.0 mi WNW 24.2 mph 33.4 mph N/A   Scattered Clouds
2:15 PM 71.4 °F - 14.2 °F 11% 29.80 in 10.0 mi West 31.1 mph 39.1 mph N/A   Scattered Clouds
2:35 PM 68.9 °F - 13.6 °F 12% 29.79 in 2.5 mi West 25.3 mph 55.2 mph N/A   Haze
2:55 PM 72.5 °F - 14.5 °F 11% 29.78 in 10.0 mi West 21.9 mph 35.7 mph N/A   Scattered Clouds
3:15 PM 75.2 °F - 14.5 °F 10% 29.75 in 10.0 mi WSW 13.8 mph 28.8 mph N/A   Clear
3:35 PM 74.3 °F - 10.2 °F 9% 29.75 in 10.0 mi West 27.6 mph 38.0 mph N/A   Clear
3:55 PM 75.0 °F - 10.9 °F 9% 29.74 in 10.0 mi WNW 28.8 mph 36.8 mph N/A   Clear
4:15 PM 75.4 °F - 12.2 °F 9% 29.74 in 10.0 mi WNW 26.5 mph 36.8 mph N/A   Clear
4:35 PM 75.4 °F - 11.3 °F 9% 29.74 in 10.0 mi West 26.5 mph 38.0 mph N/A   Clear
4:55 PM 73.6 °F - 10.2 °F 9% 29.74 in 10.0 mi West 18.4 mph 38.0 mph N/A   Clear
5:15 PM 74.5 °F - 7.9 °F 8% 29.75 in 10.0 mi West 20.7 mph 34.5 mph N/A   Clear
5:35 PM 73.4 °F - 4.1 °F 7% 29.75 in 10.0 mi WNW 26.5 mph 34.5 mph N/A   Clear
5:55 PM 72.5 °F - 3.4 °F 7% 29.76 in 10.0 mi West 27.6 mph 35.7 mph N/A   Clear
6:15 PM 72.0 °F - 1.9 °F 6% 29.77 in 10.0 mi WNW 18.4 mph 28.8 mph N/A   Clear
6:35 PM 70.7 °F - 5.2 °F 8% 29.77 in 10.0 mi West 23.0 mph 34.5 mph N/A   Clear
6:55 PM 69.3 °F - 5.4 °F 8% 29.78 in 10.0 mi West 19.6 mph 29.9 mph N/A   Clear
7:15 PM 68.2 °F - 6.1 °F 9% 29.78 in 10.0 mi WNW 18.4 mph 29.9 mph N/A   Clear
7:35 PM 67.3 °F - 6.8 °F 9% 29.78 in 10.0 mi West 12.7 mph 26.5 mph N/A   Clear
7:55 PM 66.6 °F - 7.0 °F 10% 29.79 in 10.0 mi West 11.5 mph 26.5 mph N/A   Clear
8:15 PM 65.8 °F - 7.9 °F 10% 29.79 in 10.0 mi West 15.0 mph 25.3 mph N/A   Clear
8:35 PM 66.2 °F - 8.4 °F 10% 29.81 in 10.0 mi West 18.4 mph 23.0 mph N/A   Clear
8:55 PM 65.3 °F - 9.5 °F 11% 29.82 in 10.0 mi West 12.7 mph 20.7 mph N/A   Clear
9:15 PM 64.6 °F - 10.2 °F 12% 29.83 in 10.0 mi West 15.0 mph 20.7 mph N/A   Clear
9:35 PM 63.9 °F - 9.3 °F 12% 29.84 in 10.0 mi West 11.5 mph - N/A   Clear
9:55 PM 63.1 °F - 8.4 °F 12% 29.85 in 10.0 mi West 11.5 mph - N/A   Clear
10:15 PM 61.9 °F - 4.3 °F 10% 29.86 in 10.0 mi WNW 17.3 mph 23.0 mph N/A   Clear
10:35 PM 62.2 °F - 0.9 °F 9% 29.87 in 10.0 mi West 10.4 mph 18.4 mph N/A   Clear
10:55 PM 62.1 °F - -2.4 °F 7% 29.88 in 10.0 mi West 11.5 mph 18.4 mph N/A   Clear
11:15 PM 61.0 °F - -1.8 °F 8% 29.88 in 10.0 mi West 15.0 mph 21.9 mph N/A   Clear
11:35 PM 62.6 °F - 1.8 °F 9% 29.88 in 10.0 mi WNW 16.1 mph 23.0 mph N/A   Clear
11:55 PM 61.9 °F - 8.6 °F 12% 29.88 in 10.0 mi West 19.6 mph 25.3 mph N/A   Clear